Time;durP1;ratioP1;P1;durP2;ratioP2;P2;SDS_P1;SDS_P2;PMS_P1;PMS_P2;Temp;Humidity;BMP_temperature;BMP_pressure;BME280_temperature;BME280_humidity;BME280_pressure;Samples;Min_cycle;Max_cycle;Signal;HPM_P1;HPM_P2
2021/06/10 00:00:00;;;;;;;5.72;5.05;;;;;;;17.60;87.79;99972.07;1716142;82;21489;-53
2021/06/10 00:02:27;;;;;;;7.53;6.37;;;;;;;17.57;88.09;99967.48;1688138;83;20986;-53
2021/06/10 00:04:54;;;;;;;5.90;5.30;;;;;;;17.54;88.38;99972.67;1735188;82;21322;-49
2021/06/10 00:07:20;;;;;;;7.37;5.17;;;;;;;17.53;88.65;99972.30;1728826;81;20973;-56
2021/06/10 00:09:47;;;;;;;5.55;4.90;;;;;;;17.52;88.82;99972.80;1739131;82;20930;-50
2021/06/10 00:12:17;;;;;;;6.12;5.12;;;;;;;17.52;88.93;99969.27;1738810;81;20962;-51
2021/06/10 00:14:44;;;;;;;5.45;4.95;;;;;;;17.50;88.95;99976.14;1734279;82;21762;-51
2021/06/10 00:17:11;;;;;;;6.12;5.53;;;;;;;17.50;89.06;99972.09;1713301;82;20994;-51
2021/06/10 00:19:37;;;;;;;5.70;5.08;;;;;;;17.49;89.14;99973.11;1682530;83;20914;-51
2021/06/10 00:22:04;;;;;;;5.45;4.95;;;;;;;17.49;89.19;99973.11;1738017;82;20958;-52
2021/06/10 00:24:31;;;;;;;5.97;5.47;;;;;;;17.48;89.22;99975.94;1737901;81;20934;-50
2021/06/10 00:26:57;;;;;;;13.08;4.90;;;;;;;17.47;89.33;99974.25;1735674;82;21006;-57
2021/06/10 00:29:24;;;;;;;6.22;5.03;;;;;;;17.45;89.41;99973.54;1718847;82;20958;-55
2021/06/10 00:31:51;;;;;;;6.30;5.22;;;;;;;17.44;89.46;99974.55;1680439;84;21011;-49
2021/06/10 00:34:17;;;;;;;8.18;4.90;;;;;;;17.43;89.47;99977.72;1684303;84;21512;-50
2021/06/10 00:36:44;;;;;;;5.78;4.72;;;;;;;17.40;89.54;99971.28;1691665;83;20907;-55
2021/06/10 00:39:10;;;;;;;6.50;5.25;;;;;;;17.38;89.60;99972.42;1685816;83;20926;-50
2021/06/10 00:41:37;;;;;;;5.87;4.92;;;;;;;17.34;89.76;99968.30;1734375;82;21080;-53
2021/06/10 00:44:05;;;;;;;5.45;4.87;;;;;;;17.30;89.97;99965.91;1729688;81;21009;-53
2021/06/10 00:46:33;;;;;;;7.30;4.97;;;;;;;17.29;90.07;99970.95;1736469;81;21049;-50
2021/06/10 00:49:00;;;;;;;5.85;4.87;;;;;;;17.28;90.19;99970.59;1678714;83;20898;-52
2021/06/10 00:51:27;;;;;;;4.97;4.45;;;;;;;17.28;90.33;99965.70;1676844;84;21919;-54
2021/06/10 00:53:56;;;;;;;4.85;4.45;;;;;;;17.26;90.47;99959.60;1676384;84;20993;-51
2021/06/10 00:56:22;;;;;;;5.83;5.10;;;;;;;17.23;90.59;99965.29;1683130;83;21026;-47
2021/06/10 00:58:49;;;;;;;5.35;4.95;;;;;;;17.20;90.72;99961.04;1724733;81;20981;-53
2021/06/10 01:01:16;;;;;;;5.80;5.20;;;;;;;17.18;90.85;99960.33;1714022;82;21507;-51
2021/06/10 01:03:42;;;;;;;6.45;4.42;;;;;;;17.18;91.00;99952.75;1733290;80;20924;-51
2021/06/10 01:06:20;;;;;;;5.95;4.70;;;;;;;17.18;91.21;99957.63;1734463;80;20928;-51
2021/06/10 01:09:07;;;;;;;5.65;5.15;;;;;;;17.17;91.36;99960.48;1735452;80;20939;-52
2021/06/10 01:11:48;;;;;;;10.32;9.13;;;;;;;17.14;91.51;99953.55;1739776;80;20933;-57
2021/06/10 01:14:28;;;;;;;7.47;6.78;;;;;;;17.15;91.62;99957.93;1736326;80;20966;-60
2021/06/10 01:16:55;;;;;;;9.23;7.50;;;;;;;17.15;91.72;99955.23;1723812;81;20989;-49
2021/06/10 01:19:46;;;;;;;8.03;5.33;;;;;;;17.17;91.72;99960.48;1709216;82;20961;-50
2021/06/10 01:22:27;;;;;;;5.97;5.37;;;;;;;17.16;91.59;99958.30;1709092;82;20944;-48
2021/06/10 01:25:17;;;;;;;4.87;4.42;;;;;;;17.16;91.38;99956.08;1708378;82;20978;-56
2021/06/10 01:27:49;;;;;;;5.78;5.10;;;;;;;17.14;91.31;99954.05;1721970;81;20966;-49
2021/06/10 01:30:20;;;;;;;5.30;4.80;;;;;;;17.14;91.22;99952.70;1710017;82;21456;-52
2021/06/10 01:32:56;;;;;;;5.12;4.62;;;;;;;17.12;91.16;99949.30;1712957;82;21501;-57
2021/06/10 01:35:24;;;;;;;5.35;4.85;;;;;;;17.12;91.27;99956.03;1707744;82;20928;-57
2021/06/10 01:37:52;;;;;;;5.60;4.70;;;;;;;17.11;91.39;99958.36;1706968;82;20960;-54
2021/06/10 01:40:21;;;;;;;5.45;4.95;;;;;;;17.09;91.53;99959.36;1689010;82;20979;-51
2021/06/10 01:42:47;;;;;;;5.70;4.97;;;;;;;17.08;91.63;99963.53;1711532;82;20983;-53
2021/06/10 01:45:14;;;;;;;5.30;4.78;;;;;;;17.08;91.64;99968.45;1722792;81;20943;-50
2021/06/10 01:47:43;;;;;;;5.17;4.67;;;;;;;17.06;91.55;99971.78;1713996;82;20980;-53
2021/06/10 01:50:11;;;;;;;5.25;4.75;;;;;;;17.03;91.53;99965.81;1705940;82;21011;-49
2021/06/10 01:52:38;;;;;;;6.35;5.00;;;;;;;17.01;91.62;99968.67;1738772;80;20939;-52
2021/06/10 01:55:11;;;;;;;7.70;4.83;;;;;;;16.98;91.71;99968.93;1696618;79;20991;-55
2021/06/10 01:57:38;;;;;;;4.97;4.50;;;;;;;16.96;91.85;99974.11;1722373;81;20957;-56
2021/06/10 02:00:07;;;;;;;5.15;4.65;;;;;;;16.95;92.05;99974.61;1713815;81;20947;-57
2021/06/10 02:02:35;;;;;;;5.62;5.00;;;;;;;16.95;92.12;99971.08;1720763;81;20943;-55
2021/06/10 02:05:05;;;;;;;5.20;4.50;;;;;;;16.92;92.27;99965.98;1712071;81;20947;-53
2021/06/10 02:07:31;;;;;;;5.17;4.67;;;;;;;16.91;92.38;99969.64;1713252;81;20955;-49
2021/06/10 02:09:58;;;;;;;5.03;4.53;;;;;;;16.91;92.43;99966.95;1714530;81;21015;-53
2021/06/10 02:12:24;;;;;;;5.62;4.28;;;;;;;16.90;92.46;99963.42;1715790;81;20956;-48
2021/06/10 02:14:51;;;;;;;6.33;4.83;;;;;;;16.89;92.54;99967.62;1738669;80;20903;-55
2021/06/10 02:17:18;;;;;;;5.40;4.72;;;;;;;16.87;92.75;99963.70;1739254;81;20939;-54
2021/06/10 02:19:45;;;;;;;5.37;4.92;;;;;;;16.85;93.02;99964.34;1726190;81;21783;-46
2021/06/10 02:22:12;;;;;;;5.75;4.53;;;;;;;16.85;93.25;99964.34;1749854;80;20947;-52
2021/06/10 02:24:39;;;;;;;8.13;4.75;;;;;;;16.87;93.37;99963.70;1743299;80;20922;-49
2021/06/10 02:27:07;;;;;;;4.95;4.40;;;;;;;16.89;93.46;99963.08;1741059;81;21704;-54
2021/06/10 02:29:33;;;;;;;4.62;4.10;;;;;;;16.90;93.56;99966.61;1727493;81;20987;-51
2021/06/10 02:32:00;;;;;;;8.53;4.95;;;;;;;16.92;93.72;99960.59;1728853;81;20949;-48
2021/06/10 02:34:26;;;;;;;5.37;4.22;;;;;;;16.92;93.82;99961.94;1749225;80;20981;-57
2021/06/10 02:36:53;;;;;;;5.58;4.92;;;;;;;16.92;93.84;99966.83;1745156;81;20987;-51
2021/06/10 02:39:20;;;;;;;5.08;4.58;;;;;;;16.92;93.87;99965.98;1744742;80;21215;-50
2021/06/10 02:41:51;;;;;;;6.25;4.92;;;;;;;16.91;93.97;99973.22;1749936;80;21073;-46
2021/06/10 02:44:18;;;;;;;5.75;4.90;;;;;;;16.91;94.11;99969.17;1749203;80;20927;-53
2021/06/10 02:46:45;;;;;;;6.47;5.17;;;;;;;16.93;94.42;99969.02;1740165;81;20977;-53
2021/06/10 02:49:11;;;;;;;5.55;4.72;;;;;;;16.93;94.55;99968.51;1722985;81;20986;-50
2021/06/10 02:51:39;;;;;;;5.53;5.03;;;;;;;16.93;94.53;99959.59;1718084;81;20957;-47
2021/06/10 02:54:08;;;;;;;8.35;7.00;;;;;;;16.94;94.61;99964.84;1749902;80;20935;-51
2021/06/10 02:56:36;;;;;;;8.13;5.78;;;;;;;16.97;94.79;99962.36;1751085;81;20938;-54
2021/06/10 02:59:03;;;;;;;7.35;5.85;;;;;;;16.98;94.77;99964.89;1743749;80;20998;-50
2021/06/10 03:01:37;;;;;;;6.05;4.53;;;;;;;16.99;94.74;99959.88;1742094;81;21434;-49
2021/06/10 03:04:04;;;;;;;7.40;4.80;;;;;;;17.00;94.81;99966.95;1747244;80;20904;-50
2021/06/10 03:06:31;;;;;;;8.68;5.53;;;;;;;17.02;94.79;99966.82;1748113;80;20971;-52
2021/06/10 03:08:58;;;;;;;6.70;5.33;;;;;;;17.05;94.86;99971.41;1740529;80;20935;-53
2021/06/10 03:11:24;;;;;;;4.95;4.45;;;;;;;17.08;94.89;99970.27;1742004;80;20998;-51
2021/06/10 03:13:51;;;;;;;6.62;4.83;;;;;;;17.12;94.93;99970.85;1735060;80;20912;-53
2021/06/10 03:16:18;;;;;;;7.92;4.87;;;;;;;17.14;94.97;99972.41;1747435;80;20907;-50
2021/06/10 03:18:44;;;;;;;5.75;5.25;;;;;;;17.17;94.84;99971.27;1744786;80;20962;-51
2021/06/10 03:21:11;;;;;;;5.72;4.75;;;;;;;17.19;94.74;99969.28;1704544;83;20974;-50
2021/06/10 03:23:38;;;;;;;7.12;4.80;;;;;;;17.23;94.81;99967.98;1722311;82;21792;-54
2021/06/10 03:26:07;;;;;;;6.10;5.60;;;;;;;17.26;94.89;99966.34;1723319;82;20971;-51
2021/06/10 03:28:40;;;;;;;7.25;5.85;;;;;;;17.29;94.78;99962.03;1724164;82;20994;-57
2021/06/10 03:31:07;;;;;;;5.83;5.25;;;;;;;17.32;94.57;99957.69;1725101;82;21884;-45
2021/06/10 03:33:34;;;;;;;5.47;4.95;;;;;;;17.36;94.60;99959.58;1709399;82;21311;-56
2021/06/10 03:36:01;;;;;;;6.15;5.55;;;;;;;17.40;94.51;99959.16;1703507;83;20979;-55
2021/06/10 03:38:27;;;;;;;5.75;5.20;;;;;;;17.44;94.43;99960.57;1725464;82;21543;-55
2021/06/10 03:40:55;;;;;;;6.45;5.00;;;;;;;17.48;94.34;99957.91;1694027;82;21082;-47
2021/06/10 03:43:22;;;;;;;5.65;5.05;;;;;;;17.55;94.34;99953.30;1719268;82;21374;-52
2021/06/10 03:45:50;;;;;;;5.35;4.85;;;;;;;17.61;94.40;99958.93;1722477;82;20970;-48
2021/06/10 03:48:16;;;;;;;5.78;5.22;;;;;;;17.68;94.30;99960.55;1721014;82;21004;-48
2021/06/10 03:50:43;;;;;;;5.83;5.17;;;;;;;17.71;94.46;99951.69;1745979;80;20955;-48
2021/06/10 03:53:11;;;;;;;6.03;5.20;;;;;;;17.76;94.23;99946.33;1753959;80;21418;-56
2021/06/10 03:55:40;;;;;;;6.03;5.42;;;;;;;17.81;93.86;99953.00;1739498;81;20922;-49
2021/06/10 03:58:07;;;;;;;5.85;5.25;;;;;;;17.87;93.34;99955.63;1721052;82;20948;-51
2021/06/10 04:00:33;;;;;;;5.20;4.70;;;;;;;17.89;93.22;99957.17;1716845;82;20995;-52
2021/06/10 04:03:01;;;;;;;6.72;5.00;;;;;;;17.94;92.95;99960.27;1709548;82;20967;-57
2021/06/10 04:05:31;;;;;;;6.30;5.53;;;;;;;17.98;92.95;99958.10;1714197;82;20969;-48
2021/06/10 04:07:57;;;;;;;7.47;5.97;;;;;;;18.01;92.44;99958.30;1707520;82;21047;-56
2021/06/10 04:10:25;;;;;;;5.87;4.90;;;;;;;18.04;92.48;99951.25;1705684;82;21019;-45
2021/06/10 04:12:53;;;;;;;5.78;5.17;;;;;;;18.09;92.49;99953.00;1708276;82;21042;-51
2021/06/10 04:15:23;;;;;;;5.80;4.53;;;;;;;18.11;92.39;99951.00;1706994;82;21074;-57
2021/06/10 04:20:54;;;;;;;5.95;5.35;;;;;;;18.20;91.98;99955.50;1577193;90;21002;-62
2021/06/10 04:23:21;;;;;;;5.72;5.22;;;;;;;18.23;91.39;99948.95;1578805;90;21129;-60
2021/06/10 04:25:47;;;;;;;5.97;5.37;;;;;;;18.25;91.42;99954.55;1573995;90;22096;-59
2021/06/10 04:28:14;;;;;;;7.10;6.05;;;;;;;18.30;91.50;99958.98;1574826;90;21094;-60
2021/06/10 04:30:40;;;;;;;7.83;5.42;;;;;;;18.34;91.58;99959.05;1570284;90;21026;-56
2021/06/10 04:33:07;;;;;;;6.87;5.65;;;;;;;18.37;91.40;99961.43;1578139;90;21033;-59
2021/06/10 04:35:33;;;;;;;6.80;6.03;;;;;;;18.41;91.03;99962.47;1576809;90;21059;-56
2021/06/10 04:38:00;;;;;;;5.65;5.15;;;;;;;18.44;91.07;99959.45;1576666;90;21023;-53
2021/06/10 04:40:27;;;;;;;6.03;5.42;;;;;;;18.47;91.17;99955.09;1572796;90;21008;-50
2021/06/10 04:42:53;;;;;;;11.18;5.90;;;;;;;18.52;91.05;99956.83;1580087;90;21062;-51
2021/06/10 04:45:20;;;;;;;6.90;5.08;;;;;;;18.56;90.97;99957.73;1577658;90;21018;-51
2021/06/10 04:47:47;;;;;;;9.40;5.83;;;;;;;18.64;91.63;99954.77;1571245;90;21038;-55
2021/06/10 04:50:14;;;;;;;6.25;5.62;;;;;;;18.69;91.45;99960.05;1575076;90;20970;-53
2021/06/10 04:52:41;;;;;;;5.37;4.87;;;;;;;18.72;90.48;99957.05;1568961;90;21091;-54
2021/06/10 04:55:08;;;;;;;22.20;6.17;;;;;;;18.75;90.23;99963.52;1575008;90;21965;-51
2021/06/10 04:57:36;;;;;;;5.80;5.20;;;;;;;18.78;89.96;99960.51;1588781;88;21005;-50
2021/06/10 05:00:05;;;;;;;6.45;4.60;;;;;;;18.83;90.23;99964.09;1595437;88;20982;-58
2021/06/10 05:02:31;;;;;;;5.17;4.67;;;;;;;18.87;89.77;99958.71;1596395;88;21054;-62
2021/06/10 05:04:58;;;;;;;7.00;4.40;;;;;;;18.91;89.31;99956.56;1595121;88;21028;-62
2021/06/10 05:07:25;;;;;;;6.55;4.33;;;;;;;18.96;89.02;99959.64;1603822;88;21022;-57
2021/06/10 05:09:52;;;;;;;5.35;4.85;;;;;;;19.00;89.12;99956.99;1595694;88;21835;-57
2021/06/10 05:12:18;;;;;;;5.37;4.75;;;;;;;19.03;88.66;99956.16;1603571;88;21002;-53
2021/06/10 05:14:45;;;;;;;6.12;5.53;;;;;;;19.08;88.36;99958.91;1603676;88;20970;-54
2021/06/10 05:17:11;;;;;;;6.25;4.50;;;;;;;19.11;88.08;99954.02;1643087;83;20947;-51
2021/06/10 05:19:38;;;;;;;7.28;4.40;;;;;;;19.16;87.59;99960.31;1692974;83;21075;-53
2021/06/10 05:22:05;;;;;;;6.08;4.40;;;;;;;19.22;87.44;99951.56;1696912;83;20943;-52
2021/06/10 05:24:31;;;;;;;6.05;5.45;;;;;;;19.28;87.03;99948.72;1697601;83;20974;-45
2021/06/10 05:26:58;;;;;;;6.35;5.37;;;;;;;19.32;86.86;99946.05;1698544;83;21092;-49
2021/06/10 05:29:24;;;;;;;5.97;4.15;;;;;;;19.35;86.79;99946.61;1697619;83;20920;-50
2021/06/10 05:31:50;;;;;;;5.85;3.98;;;;;;;19.38;85.18;99947.63;1726474;81;20995;-51
2021/06/10 05:34:17;;;;;;;5.35;4.20;;;;;;;19.38;83.89;99942.22;1715366;82;20944;-53
2021/06/10 05:36:44;;;;;;;6.03;4.20;;;;;;;19.41;84.60;99946.47;1749791;80;21524;-45
2021/06/10 05:39:11;;;;;;;5.55;4.25;;;;;;;19.45;84.93;99951.39;1724263;82;21001;-55
2021/06/10 05:41:39;;;;;;;5.15;4.67;;;;;;;19.51;84.64;99949.90;1693624;83;21858;-51
2021/06/10 05:44:06;;;;;;;6.17;4.50;;;;;;;19.55;83.95;99954.47;1729566;82;21000;-50
2021/06/10 05:46:33;;;;;;;8.93;4.58;;;;;;;19.61;84.35;99948.44;1725889;82;20991;-44
2021/06/10 05:48:59;;;;;;;5.10;4.00;;;;;;;19.71;84.82;99952.41;1708855;82;20980;-46
2021/06/10 05:51:26;;;;;;;5.10;4.05;;;;;;;19.78;83.56;99958.37;1746127;80;20935;-44
2021/06/10 05:53:52;;;;;;;4.00;3.33;;;;;;;19.81;81.02;99955.84;1723978;82;21399;-45
2021/06/10 05:56:18;;;;;;;4.62;4.22;;;;;;;19.83;81.40;99953.80;1718350;82;21074;-44
2021/06/10 05:58:53;;;;;;;5.85;3.87;;;;;;;19.88;81.60;99963.63;1715900;82;21003;-45
2021/06/10 06:02:36;;;;;;;5.50;3.90;;;;;;;19.91;80.79;99960.62;1710630;82;20959;-45
2021/06/10 06:05:24;;;;;;;7.12;3.80;;;;;;;19.94;79.03;99959.45;1712303;82;21082;-54
2021/06/10 06:07:54;;;;;;;4.37;3.72;;;;;;;19.94;79.38;99958.94;1712647;82;21447;-52
2021/06/10 06:10:21;;;;;;;5.08;3.58;;;;;;;19.97;79.80;99960.47;1711643;82;21018;-48
2021/06/10 06:12:51;;;;;;;5.12;3.90;;;;;;;20.02;79.70;99964.38;1718828;82;21194;-48
2021/06/10 06:15:18;;;;;;;6.75;3.90;;;;;;;20.05;78.40;99965.39;1713986;82;20988;-48
2021/06/10 06:17:46;;;;;;;3.67;3.17;;;;;;;20.06;78.52;99964.41;1713887;82;20931;-47
2021/06/10 06:20:14;;;;;;;3.62;3.30;;;;;;;20.12;78.52;99958.83;1709294;83;20932;-48
2021/06/10 06:22:44;;;;;;;7.87;3.58;;;;;;;20.17;78.75;99959.19;1709860;83;20952;-46
2021/06/10 06:25:11;;;;;;;9.10;3.92;;;;;;;20.23;78.01;99959.03;1710513;82;21000;-48
2021/06/10 06:27:39;;;;;;;4.45;3.08;;;;;;;20.30;77.35;99956.84;1708755;82;21583;-46
2021/06/10 06:30:07;;;;;;;5.58;3.20;;;;;;;20.36;76.77;99959.91;1706714;82;20999;-47
2021/06/10 06:32:37;;;;;;;9.95;3.72;;;;;;;20.40;77.44;99959.41;1713832;82;21925;-54
2021/06/10 06:35:05;;;;;;;6.25;3.95;;;;;;;20.43;75.93;99960.94;1711355;82;21022;-50
2021/06/10 06:37:32;;;;;;;4.95;3.87;;;;;;;20.44;75.71;99958.08;1712504;82;20943;-53
2021/06/10 06:39:59;;;;;;;4.17;3.15;;;;;;;20.49;76.25;99950.81;1711265;83;21007;-54
2021/06/10 06:42:25;;;;;;;5.62;2.92;;;;;;;20.54;73.78;99953.88;1727980;80;21580;-53
2021/06/10 06:44:52;;;;;;;3.27;2.77;;;;;;;20.57;73.32;99952.73;1747350;80;20954;-53
2021/06/10 06:47:25;;;;;;;4.87;3.05;;;;;;;20.60;73.64;99955.09;1722826;82;20976;-53
2021/06/10 06:49:52;;;;;;;3.87;2.87;;;;;;;20.63;73.77;99958.30;1713733;82;20983;-54
2021/06/10 06:52:19;;;;;;;4.40;2.90;;;;;;;20.64;71.52;99949.70;1721323;82;21853;-53
2021/06/10 06:54:45;;;;;;;2.50;2.08;;;;;;;20.64;70.76;99953.75;1714392;82;20995;-53
2021/06/10 06:57:12;;;;;;;6.12;2.47;;;;;;;20.59;66.70;99948.84;1718521;82;20984;-53
2021/06/10 06:59:39;;;;;;;4.17;2.60;;;;;;;20.51;67.30;99946.94;1702306;82;20964;-54
2021/06/10 07:02:06;;;;;;;5.17;2.47;;;;;;;20.48;68.42;99945.88;1697568;82;20932;-54
2021/06/10 07:04:33;;;;;;;3.22;2.33;;;;;;;20.50;69.73;99946.58;1699297;82;21007;-52
2021/06/10 07:07:00;;;;;;;4.05;2.72;;;;;;;20.56;71.51;99949.14;1704391;82;21024;-52
2021/06/10 07:09:27;;;;;;;2.85;2.45;;;;;;;20.62;71.38;99944.95;1699464;82;21007;-53
2021/06/10 07:11:54;;;;;;;2.80;2.50;;;;;;;20.68;71.22;99950.52;1708943;82;20945;-53
2021/06/10 07:14:20;;;;;;;4.10;2.55;;;;;;;20.73;71.27;99947.31;1701682;82;21484;-53
2021/06/10 07:16:47;;;;;;;2.87;2.47;;;;;;;20.79;69.00;99946.66;1704709;82;21905;-49
2021/06/10 07:19:14;;;;;;;2.60;2.10;;;;;;;20.83;66.31;99944.44;1708741;82;21012;-55
2021/06/10 07:21:46;;;;;;;2.22;1.98;;;;;;;20.82;66.41;99946.83;1707144;82;20936;-56
2021/06/10 07:24:12;;;;;;;2.45;2.10;;;;;;;20.85;64.48;99939.70;1694538;82;21011;-46
2021/06/10 07:26:43;;;;;;;3.25;1.85;;;;;;;20.89;63.75;99941.92;1702179;82;20952;-48
2021/06/10 07:29:12;;;;;;;3.25;2.15;;;;;;;20.94;64.61;99942.73;1699863;82;20972;-53
2021/06/10 07:31:39;;;;;;;2.55;1.75;;;;;;;21.00;63.49;99947.49;1701090;82;22060;-47
2021/06/10 07:34:06;;;;;;;2.22;1.87;;;;;;;21.05;63.59;99945.63;1707407;82;21324;-53
2021/06/10 07:36:33;;;;;;;4.53;2.47;;;;;;;21.09;62.42;99940.19;1709994;82;20939;-47
2021/06/10 07:39:03;;;;;;;3.35;1.92;;;;;;;21.11;62.73;99939.00;1705619;82;20960;-48
2021/06/10 07:41:31;;;;;;;3.95;1.75;;;;;;;21.14;63.53;99947.30;1708777;82;20984;-49
2021/06/10 07:43:57;;;;;;;4.55;2.20;;;;;;;21.17;61.72;99942.92;1704165;82;20972;-49
2021/06/10 07:46:25;;;;;;;3.12;1.87;;;;;;;21.19;61.14;99944.92;1709086;82;21859;-50
2021/06/10 07:48:53;;;;;;;2.42;1.87;;;;;;;21.21;60.20;99945.60;1702130;82;21010;-50
2021/06/10 07:51:19;;;;;;;2.67;1.75;;;;;;;21.24;60.74;99943.89;1699908;82;20928;-49
2021/06/10 07:53:46;;;;;;;3.55;1.80;;;;;;;21.29;60.46;99943.39;1708136;82;21009;-45
2021/06/10 07:56:13;;;;;;;2.47;1.90;;;;;;;21.37;60.30;99944.23;1709625;82;21420;-51
2021/06/10 07:58:39;;;;;;;6.40;2.30;;;;;;;21.44;60.70;99953.05;1720965;81;20939;-51
2021/06/10 08:01:06;;;;;;;2.42;2.22;;;;;;;21.48;60.36;99953.06;1728726;81;20932;-51
2021/06/10 08:03:32;;;;;;;2.72;2.00;;;;;;;21.52;61.64;99949.84;1728537;81;20962;-48
2021/06/10 08:06:01;;;;;;;2.50;2.08;;;;;;;21.57;60.35;99954.23;1728425;81;20931;-47
2021/06/10 08:08:27;;;;;;;4.00;1.42;;;;;;;21.55;59.31;99956.27;1758154;80;20970;-45
2021/06/10 08:10:59;;;;;;;2.50;1.25;;;;;;;21.54;59.65;99955.06;1729988;81;20959;-56
2021/06/10 08:13:24;;;;;;;2.37;1.70;;;;;;;21.54;57.02;99949.64;1730984;81;21007;-54
2021/06/10 08:15:51;;;;;;;2.98;1.70;;;;;;;21.58;57.65;99946.93;1729779;81;21003;-53
2021/06/10 08:18:19;;;;;;;1.70;1.52;;;;;;;21.63;55.99;99940.47;1728213;81;21020;-48
2021/06/10 08:20:45;;;;;;;2.15;1.85;;;;;;;21.69;55.91;99942.98;1724371;81;20985;-55
2021/06/10 08:23:12;;;;;;;1.30;1.20;;;;;;;21.73;55.88;99936.20;1728619;81;20967;-50
2021/06/10 08:25:44;;;;;;;1.50;1.30;;;;;;;21.74;55.21;99933.30;1757313;80;21250;-52
2021/06/10 08:28:12;;;;;;;2.27;1.70;;;;;;;21.75;53.84;99929.59;1760356;80;21587;-57
2021/06/10 08:30:39;;;;;;;1.85;1.47;;;;;;;21.77;54.62;99929.39;1757085;80;20954;-57
2021/06/10 08:33:06;;;;;;;3.22;1.20;;;;;;;21.82;55.21;99928.35;1726872;81;21431;-57
2021/06/10 08:35:33;;;;;;;4.12;1.90;;;;;;;21.90;55.66;99926.98;1722749;81;20964;-59
2021/06/10 08:38:06;;;;;;;2.33;1.40;;;;;;;21.99;54.42;99923.70;1719951;81;21031;-58
2021/06/10 08:40:33;;;;;;;1.27;1.07;;;;;;;22.07;53.25;99925.02;1724132;81;20928;-58
2021/06/10 08:43:00;;;;;;;2.35;1.67;;;;;;;22.14;53.87;99933.30;1716753;82;21481;-57
2021/06/10 08:45:30;;;;;;;2.20;1.60;;;;;;;22.16;52.04;99929.39;1747021;80;21304;-56
2021/06/10 08:47:58;;;;;;;3.58;1.60;;;;;;;22.18;52.42;99935.49;1726745;81;21562;-50
2021/06/10 08:50:27;;;;;;;1.77;1.20;;;;;;;22.23;53.79;99933.13;1722456;81;21456;-51
2021/06/10 08:52:58;;;;;;;2.12;1.60;;;;;;;22.32;53.42;99937.14;1758125;80;20917;-59
2021/06/10 08:55:26;;;;;;;2.45;1.80;;;;;;;22.33;53.31;99930.18;1730878;81;20985;-55
2021/06/10 08:57:52;;;;;;;2.65;2.17;;;;;;;22.34;54.76;99926.95;1749765;80;20932;-47
2021/06/10 09:00:24;;;;;;;1.75;1.65;;;;;;;22.38;55.64;99935.08;1724663;82;21000;-46
2021/06/10 09:03:01;;;;;;;2.42;1.60;;;;;;;22.45;53.86;99929.23;1714735;82;21459;-47
2021/06/10 09:05:29;;;;;;;2.77;1.52;;;;;;;22.50;51.93;99925.47;1722475;82;20987;-46
2021/06/10 09:08:09;;;;;;;2.35;1.55;;;;;;;22.55;52.82;99927.65;1714960;82;20948;-52
2021/06/10 09:10:36;;;;;;;3.00;2.00;;;;;;;22.60;53.49;99919.80;1694804;83;21015;-52
2021/06/10 09:13:05;;;;;;;2.62;2.15;;;;;;;22.63;53.11;99928.45;1715131;82;20936;-50
2021/06/10 09:15:35;;;;;;;2.52;2.33;;;;;;;22.63;53.39;99927.09;1722507;82;20958;-48
2021/06/10 09:18:02;;;;;;;2.37;1.90;;;;;;;22.61;53.89;99925.06;1749415;80;20976;-52
2021/06/10 09:20:37;;;;;;;2.00;1.80;;;;;;;22.60;53.27;99917.08;1721004;82;20936;-51
2021/06/10 09:23:23;;;;;;;1.85;1.50;;;;;;;22.58;52.63;99918.64;1715079;82;21868;-51
2021/06/10 09:26:03;;;;;;;2.62;1.72;;;;;;;22.59;52.40;99915.41;1713346;82;21003;-56
2021/06/10 09:28:40;;;;;;;3.02;2.20;;;;;;;22.55;50.03;99912.19;1743797;80;20956;-63
2021/06/10 09:31:06;;;;;;;2.20;1.70;;;;;;;22.49;50.96;99912.92;1710103;82;20948;-47
2021/06/10 09:33:41;;;;;;;3.50;1.90;;;;;;;22.46;52.57;99915.48;1749710;80;20990;-51
2021/06/10 09:36:08;;;;;;;1.98;1.87;;;;;;;22.47;51.01;99923.95;1726588;82;20950;-51
2021/06/10 09:38:34;;;;;;;2.67;2.05;;;;;;;22.47;52.82;99925.31;1688944;82;21798;-51
2021/06/10 09:41:05;;;;;;;3.37;1.87;;;;;;;22.50;53.13;99922.75;1710368;82;20988;-54
2021/06/10 09:43:45;;;;;;;2.35;2.00;;;;;;;22.52;52.22;99921.23;1743774;80;21966;-50
2021/06/10 09:46:12;;;;;;;2.67;2.47;;;;;;;22.51;51.99;99917.67;1748867;80;20967;-52
2021/06/10 09:48:38;;;;;;;4.53;2.40;;;;;;;22.49;53.23;99922.44;1718412;82;20961;-51
2021/06/10 09:51:05;;;;;;;2.85;1.92;;;;;;;22.45;51.05;99917.89;1720018;82;20948;-50
2021/06/10 09:53:34;;;;;;;2.67;2.45;;;;;;;22.40;51.82;99909.92;1708891;82;20967;-51
2021/06/10 09:56:08;;;;;;;4.25;2.67;;;;;;;22.39;53.21;99920.47;1751997;80;20932;-53
2021/06/10 09:58:39;;;;;;;5.05;2.77;;;;;;;22.37;55.77;99916.56;1719253;82;21645;-50
2021/06/10 10:01:16;;;;;;;4.12;3.27;;;;;;;22.38;57.89;99923.70;1706928;82;21503;-53
2021/06/10 10:03:46;;;;;;;3.90;3.40;;;;;;;22.39;57.94;99921.83;1703551;82;20925;-50
2021/06/10 10:06:17;;;;;;;3.77;2.42;;;;;;;22.40;59.05;99927.09;1705393;82;21041;-50
2021/06/10 10:08:46;;;;;;;4.72;3.37;;;;;;;22.42;60.19;99926.38;1704092;82;21000;-50
2021/06/10 10:11:14;;;;;;;4.53;3.40;;;;;;;22.39;60.30;99924.02;1710401;82;20999;-48
2021/06/10 10:13:43;;;;;;;3.50;2.92;;;;;;;22.37;61.02;99923.87;1706258;82;20980;-57
2021/06/10 10:16:11;;;;;;;3.60;3.00;;;;;;;22.33;61.69;99916.61;1706187;82;20956;-58
2021/06/10 10:18:38;;;;;;;3.58;2.77;;;;;;;22.32;61.08;99916.25;1705889;82;21827;-58
2021/06/10 10:21:06;;;;;;;4.97;2.77;;;;;;;22.30;59.50;99915.61;1716991;82;20992;-51
2021/06/10 10:23:33;;;;;;;4.58;2.70;;;;;;;22.25;59.10;99912.56;1705406;82;21435;-51
2021/06/10 10:26:03;;;;;;;5.50;2.52;;;;;;;22.24;59.60;99910.88;1710888;82;20994;-42
2021/06/10 10:28:33;;;;;;;3.30;2.87;;;;;;;;;;1711808;82;20991;-41
2021/06/10 10:31:03;;;;;;;5.57;2.57;;;;;;;22.18;60.16;99894.77;1715909;82;21421;-42
2021/06/10 10:33:29;;;;;;;3.92;3.00;;;;;;;22.16;61.22;99891.38;1680737;83;21736;-46
2021/06/10 10:35:58;;;;;;;5.00;3.67;;;;;;;22.13;60.96;99890.91;1699952;82;20954;-43
2021/06/10 10:38:41;;;;;;;3.70;3.15;;;;;;;22.06;61.07;99889.41;1705997;82;21469;-41
2021/06/10 10:41:12;;;;;;;3.40;3.10;;;;;;;22.01;60.69;99897.23;1694503;82;21383;-41
2021/06/10 10:43:39;;;;;;;3.67;2.90;;;;;;;21.96;60.55;99890.98;1697802;82;20973;-52
2021/06/10 10:46:20;;;;;;;3.10;2.60;;;;;;;21.96;60.83;99892.86;1695597;82;20975;-41
2021/06/10 10:48:59;;;;;;;3.95;2.55;;;;;;;21.94;60.73;99893.55;1691823;82;21000;-40
2021/06/10 10:51:36;;;;;;;3.98;2.60;;;;;;;21.92;60.66;99895.58;1705437;82;20941;-44
2021/06/10 10:54:27;;;;;;;2.90;2.58;;;;;;;21.90;60.50;99901.69;1702076;82;21043;-45
2021/06/10 10:56:57;;;;;;;4.00;2.70;;;;;;;21.92;60.96;99907.80;1694996;82;21060;-41
2021/06/10 10:59:24;;;;;;;2.77;2.30;;;;;;;21.94;61.78;99913.89;1700892;82;21494;-40
2021/06/10 11:02:10;;;;;;;4.05;2.50;;;;;;;21.95;62.28;99920.52;1702262;82;21416;-42
2021/06/10 11:04:55;;;;;;;6.20;3.22;;;;;;;21.98;62.75;99927.45;1695961;82;20952;-41
2021/06/10 11:07:39;;;;;;;4.12;3.62;;;;;;;21.97;62.93;99921.67;1695257;82;21435;-41
2021/06/10 11:10:11;;;;;;;3.67;2.70;;;;;;;22.00;63.62;99922.70;1706168;82;21480;-41
2021/06/10 11:12:51;;;;;;;4.80;3.58;;;;;;;22.02;64.28;99916.08;1706844;82;20944;-41
2021/06/10 11:15:51;;;;;;;3.90;3.50;;;;;;;22.03;64.89;99911.48;1699468;82;21002;-43
2021/06/10 11:18:43;;;;;;;3.70;3.40;;;;;;;22.01;64.49;99910.30;1700134;82;20967;-42
2021/06/10 11:21:11;;;;;;;4.22;3.83;;;;;;;22.01;65.09;99910.81;1708361;82;20952;-42
2021/06/10 11:23:38;;;;;;;6.87;3.80;;;;;;;22.04;65.35;99909.09;1716952;82;21482;-42
2021/06/10 11:26:18;;;;;;;5.28;4.00;;;;;;;22.07;65.67;99908.73;1683167;82;20945;-41
2021/06/10 11:28:44;;;;;;;7.33;3.42;;;;;;;22.09;66.16;99899.91;1709779;82;21013;-42
2021/06/10 11:31:25;;;;;;;3.42;3.02;;;;;;;22.11;65.96;99906.52;1680092;82;21007;-42
2021/06/10 11:33:49;;;;;;;4.60;4.10;;;;;;;22.09;66.34;99902.62;1710134;82;20964;-41
2021/06/10 11:36:18;;;;;;;6.60;4.20;;;;;;;22.04;65.55;99903.14;1699988;82;21530;-41
2021/06/10 11:38:48;;;;;;;4.55;4.15;;;;;;;21.98;63.97;99901.67;1705302;82;20987;-42
2021/06/10 11:41:22;;;;;;;5.83;3.25;;;;;;;21.91;64.07;99905.59;1705465;82;21031;-42
2021/06/10 11:46:45;;;;;;;4.40;2.95;;;;;;;21.93;63.72;99912.22;1704946;82;21012;-42
2021/06/10 11:49:12;;;;;;;4.60;3.02;;;;;;;21.99;59.93;99912.84;1691962;82;21834;-42